createdAt,value
2018-05-19T00:00:32.719Z,1011.98
2018-05-19T00:01:38.231Z,1011.99
2018-05-19T00:02:43.756Z,1011.96
2018-05-19T00:03:49.267Z,1011.98
2018-05-19T00:04:54.770Z,1011.97
2018-05-19T00:06:00.287Z,1012.01
2018-05-19T00:07:05.794Z,1011.99
2018-05-19T00:08:11.305Z,1011.98
2018-05-19T00:09:16.817Z,1011.96
2018-05-19T00:10:22.345Z,1011.95
2018-05-19T00:11:27.840Z,1011.98
2018-05-19T00:12:33.370Z,1011.92
2018-05-19T00:13:38.864Z,1011.94
2018-05-19T00:14:44.394Z,1011.97
2018-05-19T00:15:49.891Z,1011.99
2018-05-19T00:16:55.403Z,1011.99
2018-05-19T00:18:00.915Z,1012.00
2018-05-19T00:19:06.443Z,1011.98
2018-05-19T00:20:11.937Z,1011.98
2018-05-19T00:21:17.458Z,1011.98
2018-05-19T00:22:22.958Z,1011.93
2018-05-19T00:23:28.478Z,1011.94
2018-05-19T00:24:33.982Z,1011.96
2018-05-19T00:25:39.499Z,1011.93
2018-05-19T00:26:45.039Z,1011.94
2018-05-19T00:27:50.523Z,1011.95
2018-05-19T00:28:56.037Z,1011.95
2018-05-19T00:30:01.550Z,1011.95
2018-05-19T00:31:07.055Z,1011.95
2018-05-19T00:32:12.563Z,1011.91
2018-05-19T00:33:18.083Z,1011.90
2018-05-19T00:34:23.590Z,1011.91
2018-05-19T00:35:29.103Z,1011.92
2018-05-19T00:36:34.615Z,1011.90
2018-05-19T00:37:40.123Z,1011.93
2018-05-19T00:38:45.637Z,1011.91
2018-05-19T00:39:51.144Z,1011.90
2018-05-19T00:40:56.657Z,1011.90
2018-05-19T00:42:02.175Z,1011.98
2018-05-19T00:43:07.676Z,1011.95
2018-05-19T00:44:13.187Z,1011.93
2018-05-19T00:45:18.714Z,1012.01
2018-05-19T00:46:24.224Z,1011.96
2018-05-19T00:47:29.730Z,1012.02
2018-05-19T00:48:35.249Z,1012.04
2018-05-19T00:49:40.751Z,1012.03
2018-05-19T00:50:46.258Z,1012.01
2018-05-19T00:51:51.790Z,1012.03
2018-05-19T00:52:57.291Z,1012.03
2018-05-19T00:54:02.795Z,1012.06
2018-05-19T00:55:08.303Z,1012.01
2018-05-19T00:56:13.836Z,1011.98
2018-05-19T00:57:19.345Z,1012.01
2018-05-19T00:58:24.844Z,1011.98
2018-05-19T00:59:30.359Z,1011.98
2018-05-19T01:00:35.867Z,1011.96
2018-05-19T01:01:41.376Z,1011.98
2018-05-19T01:02:46.885Z,1011.97
2018-05-19T01:03:52.395Z,1011.96
2018-05-19T01:04:57.917Z,1011.94
2018-05-19T01:06:03.432Z,1011.94
2018-05-19T01:07:08.930Z,1011.92
2018-05-19T01:08:14.447Z,1011.89
2018-05-19T01:09:19.955Z,1011.91
2018-05-19T01:10:25.472Z,1011.92
2018-05-19T01:11:30.979Z,1011.90
2018-05-19T01:12:36.491Z,1011.89
2018-05-19T01:13:42.004Z,1011.88
2018-05-19T01:14:47.533Z,1011.90
2018-05-19T01:15:53.020Z,1011.86
2018-05-19T01:16:58.537Z,1011.85
2018-05-19T01:18:04.050Z,1011.88
2018-05-19T01:19:09.557Z,1011.84
2018-05-19T01:20:15.070Z,1011.80
2018-05-19T01:21:20.580Z,1011.86
2018-05-19T01:22:26.091Z,1011.84
2018-05-19T01:23:31.602Z,1011.84
2018-05-19T01:24:37.116Z,1011.85
2018-05-19T01:25:42.631Z,1011.86
2018-05-19T01:26:48.144Z,1011.85
2018-05-19T01:27:53.645Z,1011.84
2018-05-19T01:28:59.155Z,1011.83
2018-05-19T01:30:04.666Z,1011.81
2018-05-19T01:31:10.177Z,1011.79
2018-05-19T01:32:15.769Z,1011.80
2018-05-19T01:33:21.204Z,1011.81
2018-05-19T01:34:26.806Z,1011.85
2018-05-19T01:35:32.225Z,1011.84
2018-05-19T01:36:37.742Z,1011.85
2018-05-19T01:37:43.294Z,1011.86
2018-05-19T01:38:48.757Z,1011.93
2018-05-19T01:39:54.267Z,1011.92
2018-05-19T01:40:59.787Z,1011.92
2018-05-19T01:42:05.294Z,1011.94
2018-05-19T01:43:10.803Z,1011.89
2018-05-19T01:44:16.320Z,1011.90
2018-05-19T01:45:21.828Z,1011.89
2018-05-19T01:46:27.338Z,1011.89
2018-05-19T01:47:32.854Z,1011.87
2018-05-19T01:48:38.365Z,1011.86
2018-05-19T01:49:43.870Z,1011.89
2018-05-19T01:50:49.389Z,1011.91
2018-05-19T01:51:54.896Z,1011.87
2018-05-19T01:53:00.399Z,1011.90
2018-05-19T01:54:05.912Z,1011.89
2018-05-19T01:55:11.433Z,1011.88
2018-05-19T01:56:16.948Z,1011.83
2018-05-19T01:57:22.445Z,1011.82
2018-05-19T01:58:27.956Z,1011.80
2018-05-19T01:59:33.469Z,1011.81
2018-05-19T02:00:38.987Z,1011.79
2018-05-19T02:01:44.487Z,1011.80
2018-05-19T02:02:50.004Z,1011.76
2018-05-19T02:03:55.511Z,1011.76
2018-05-19T02:05:01.026Z,1011.76
2018-05-19T02:06:06.536Z,1011.74
2018-05-19T02:07:12.040Z,1011.76
2018-05-19T02:08:17.605Z,1011.76
2018-05-19T02:09:23.081Z,1011.70
2018-05-19T02:10:28.582Z,1011.75
2018-05-19T02:11:34.099Z,1011.72
2018-05-19T02:12:39.595Z,1011.73
2018-05-19T02:13:45.105Z,1011.72
2018-05-19T02:14:50.618Z,1011.70
2018-05-19T02:15:56.132Z,1011.73
2018-05-19T02:17:01.645Z,1011.73
2018-05-19T02:18:07.156Z,1011.70
2018-05-19T02:19:12.668Z,1011.67
2018-05-19T02:20:18.188Z,1011.67
2018-05-19T02:21:23.686Z,1011.69
2018-05-19T02:22:29.194Z,1011.68
2018-05-19T02:23:34.703Z,1011.67
2018-05-19T02:24:40.217Z,1011.68
2018-05-19T02:25:45.726Z,1011.68
2018-05-19T02:26:51.240Z,1011.66
2018-05-19T02:27:56.746Z,1011.64
2018-05-19T02:29:02.255Z,1011.67
2018-05-19T02:30:07.774Z,1011.69
2018-05-19T02:31:13.288Z,1011.71
2018-05-19T02:32:18.791Z,1011.69
2018-05-19T02:33:24.400Z,1011.74
2018-05-19T02:34:29.812Z,1011.74
2018-05-19T02:35:35.325Z,1011.70
2018-05-19T02:36:40.844Z,1011.76
2018-05-19T02:37:46.353Z,1011.73
2018-05-19T02:38:51.859Z,1011.77
2018-05-19T02:39:57.366Z,1011.74
2018-05-19T02:41:02.876Z,1011.74
2018-05-19T02:42:08.395Z,1011.74
2018-05-19T02:43:13.897Z,1011.72
2018-05-19T02:44:19.403Z,1011.73
2018-05-19T02:45:24.921Z,1011.76
2018-05-19T02:46:30.439Z,1011.74
2018-05-19T02:47:35.943Z,1011.73
2018-05-19T02:48:41.458Z,1011.71
2018-05-19T02:49:46.965Z,1011.74
2018-05-19T02:50:52.475Z,1011.70
2018-05-19T02:51:57.985Z,1011.73
2018-05-19T02:53:03.510Z,1011.71
2018-05-19T02:54:09.001Z,1011.71
2018-05-19T02:55:14.520Z,1011.73
2018-05-19T02:56:20.026Z,1011.72
2018-05-19T02:57:25.536Z,1011.70
2018-05-19T02:58:31.060Z,1011.72
2018-05-19T02:59:36.555Z,1011.72
2018-05-19T03:00:42.067Z,1011.71
2018-05-19T03:01:47.601Z,1011.71
2018-05-19T03:02:53.092Z,1011.71
2018-05-19T03:03:58.599Z,1011.69
2018-05-19T03:05:04.109Z,1011.70
2018-05-19T03:06:09.627Z,1011.68
2018-05-19T03:07:15.126Z,1011.70
2018-05-19T03:08:20.641Z,1011.71
2018-05-19T03:09:26.153Z,1011.64
2018-05-19T03:10:31.673Z,1011.64
2018-05-19T03:11:37.172Z,1011.64
2018-05-19T03:12:42.678Z,1011.65
2018-05-19T03:13:48.189Z,1011.66
2018-05-19T03:14:53.701Z,1011.66
2018-05-19T03:15:59.218Z,1011.65
2018-05-19T03:17:04.766Z,1011.68
2018-05-19T03:18:10.286Z,1011.67
2018-05-19T03:19:15.802Z,1011.69
2018-05-19T03:20:21.251Z,1011.65
2018-05-19T03:21:26.767Z,1011.63
2018-05-19T03:22:32.273Z,1011.64
2018-05-19T03:23:37.785Z,1011.63
2018-05-19T03:24:43.295Z,1011.65
2018-05-19T03:25:48.807Z,1011.63
2018-05-19T03:26:54.320Z,1011.64
2018-05-19T03:27:59.825Z,1011.66
2018-05-19T03:29:05.338Z,1011.69
2018-05-19T03:30:10.846Z,1011.67
2018-05-19T03:31:16.363Z,1011.69
2018-05-19T03:32:21.868Z,1011.70
2018-05-19T03:33:27.379Z,1011.67
2018-05-19T03:34:32.887Z,1011.71
2018-05-19T03:35:38.479Z,1011.70
2018-05-19T03:36:43.911Z,1011.71
2018-05-19T03:37:49.418Z,1011.72
2018-05-19T03:38:54.928Z,1011.73
2018-05-19T03:40:00.441Z,1011.72
2018-05-19T03:41:05.950Z,1011.74
2018-05-19T03:42:11.465Z,1011.74
2018-05-19T03:43:16.974Z,1011.75
2018-05-19T03:44:22.480Z,1011.68
2018-05-19T03:45:27.992Z,1011.68
2018-05-19T03:46:33.504Z,1011.71
2018-05-19T03:47:39.015Z,1011.74
2018-05-19T03:48:44.529Z,1011.75
2018-05-19T03:49:50.041Z,1011.72
2018-05-19T03:50:55.553Z,1011.75
2018-05-19T03:52:01.048Z,1011.77
2018-05-19T03:53:06.560Z,1011.77
2018-05-19T03:54:12.073Z,1011.79
2018-05-19T03:55:17.586Z,1011.77
2018-05-19T03:56:23.105Z,1011.79
2018-05-19T03:57:28.619Z,1011.79
2018-05-19T03:58:34.114Z,1011.79
2018-05-19T03:59:39.622Z,1011.77
2018-05-19T04:00:45.129Z,1011.79
2018-05-19T04:01:50.643Z,1011.78
2018-05-19T04:02:56.155Z,1011.84
2018-05-19T04:04:01.671Z,1011.83
2018-05-19T04:05:07.172Z,1011.82
2018-05-19T04:06:12.687Z,1011.82
2018-05-19T04:07:18.199Z,1011.85
2018-05-19T04:08:23.706Z,1011.85
2018-05-19T04:09:29.215Z,1011.84
2018-05-19T04:10:34.727Z,1011.82
2018-05-19T04:11:40.252Z,1011.81
2018-05-19T04:12:45.744Z,1011.86
2018-05-19T04:13:51.258Z,1011.90
2018-05-19T04:14:56.766Z,1011.89
2018-05-19T04:16:02.276Z,1011.91
2018-05-19T04:17:07.801Z,1011.91
2018-05-19T04:18:13.303Z,1011.92
2018-05-19T04:19:18.812Z,1011.90
2018-05-19T04:20:24.316Z,1011.90
2018-05-19T04:21:29.844Z,1011.93
2018-05-19T04:22:35.344Z,1011.93
2018-05-19T04:23:40.862Z,1011.95
2018-05-19T04:24:46.356Z,1011.99
2018-05-19T04:25:51.866Z,1011.95
2018-05-19T04:26:57.375Z,1011.94
2018-05-19T04:28:02.886Z,1011.98
2018-05-19T04:29:08.396Z,1012.01
2018-05-19T04:30:13.905Z,1012.02
2018-05-19T04:31:19.418Z,1012.04
2018-05-19T04:32:24.925Z,1012.04
2018-05-19T04:33:30.437Z,1012.05
2018-05-19T04:34:35.945Z,1012.06
2018-05-19T04:35:41.455Z,1012.04
2018-05-19T04:36:46.974Z,1012.07
2018-05-19T04:37:52.485Z,1012.09
2018-05-19T04:38:57.995Z,1012.08
2018-05-19T04:40:03.502Z,1012.07
2018-05-19T04:41:09.016Z,1012.10
2018-05-19T04:42:14.526Z,1012.12
2018-05-19T04:43:20.036Z,1012.12
2018-05-19T04:44:25.548Z,1012.15
2018-05-19T04:45:31.055Z,1012.11
2018-05-19T04:46:36.567Z,1012.13
2018-05-19T04:47:42.182Z,1012.12
2018-05-19T04:48:47.586Z,1012.17
2018-05-19T04:49:53.143Z,1012.16
2018-05-19T04:50:58.606Z,1012.15
2018-05-19T04:52:04.118Z,1012.14
2018-05-19T04:53:09.626Z,1012.16
2018-05-19T04:54:15.135Z,1012.16
2018-05-19T04:55:20.648Z,1012.19
2018-05-19T04:56:26.163Z,1012.20
2018-05-19T04:57:31.667Z,1012.22
2018-05-19T04:58:37.175Z,1012.24
2018-05-19T04:59:42.685Z,1012.21
2018-05-19T05:00:48.206Z,1012.23
2018-05-19T05:01:53.718Z,1012.24
2018-05-19T05:02:59.219Z,1012.21
2018-05-19T05:04:04.776Z,1012.24
2018-05-19T05:05:10.244Z,1012.24
2018-05-19T05:06:15.762Z,1012.25
2018-05-19T05:07:21.263Z,1012.24
2018-05-19T05:08:26.773Z,1012.28
2018-05-19T05:09:32.285Z,1012.31
2018-05-19T05:10:37.812Z,1012.30
2018-05-19T05:11:43.309Z,1012.29
2018-05-19T05:12:48.813Z,1012.25
2018-05-19T05:13:54.341Z,1012.30
2018-05-19T05:14:59.837Z,1012.26
2018-05-19T05:16:05.962Z,1012.30
2018-05-19T05:17:10.863Z,1012.30
2018-05-19T05:18:16.378Z,1012.32
2018-05-19T05:19:21.884Z,1012.33
2018-05-19T05:20:27.400Z,1012.28
2018-05-19T05:21:32.917Z,1012.32
2018-05-19T05:22:38.418Z,1012.35
2018-05-19T05:23:43.936Z,1012.35
2018-05-19T05:24:49.466Z,1012.32
2018-05-19T05:25:54.946Z,1012.36
2018-05-19T05:27:00.487Z,1012.43
2018-05-19T05:28:05.976Z,1012.39
2018-05-19T05:29:11.475Z,1012.45
2018-05-19T05:30:17.037Z,1012.47
2018-05-19T05:31:22.500Z,1012.49
2018-05-19T05:32:28.044Z,1012.50
2018-05-19T05:33:33.542Z,1012.52
2018-05-19T05:34:39.037Z,1012.57
2018-05-19T05:35:44.553Z,1012.52
2018-05-19T05:36:50.060Z,1012.51
2018-05-19T05:37:55.564Z,1012.51
2018-05-19T05:39:01.077Z,1012.50
2018-05-19T05:40:06.585Z,1012.53
2018-05-19T05:41:12.101Z,1012.54
2018-05-19T05:42:17.622Z,1012.53
2018-05-19T05:43:23.130Z,1012.55
2018-05-19T05:44:28.632Z,1012.52
2018-05-19T05:45:34.148Z,1012.52
2018-05-19T05:46:39.662Z,1012.53
2018-05-19T05:47:45.177Z,1012.58
2018-05-19T05:48:50.691Z,1012.56
2018-05-19T05:49:56.200Z,1012.55
2018-05-19T05:51:01.706Z,1012.54
2018-05-19T05:52:07.222Z,1012.52
2018-05-19T05:53:12.734Z,1012.58
2018-05-19T05:54:18.238Z,1012.57
2018-05-19T05:55:23.754Z,1012.59
2018-05-19T05:56:29.265Z,1012.57
2018-05-19T05:57:34.771Z,1012.58
2018-05-19T05:58:40.286Z,1012.58
2018-05-19T05:59:45.811Z,1012.59
2018-05-19T06:00:51.308Z,1012.60
2018-05-19T06:01:56.816Z,1012.59
2018-05-19T06:03:02.341Z,1012.59
2018-05-19T06:04:07.847Z,1012.66
2018-05-19T06:05:13.360Z,1012.62
2018-05-19T06:06:18.880Z,1012.61
2018-05-19T06:07:24.381Z,1012.64
2018-05-19T06:08:29.937Z,1012.64
2018-05-19T06:09:35.397Z,1012.66
2018-05-19T06:10:40.917Z,1012.63
2018-05-19T06:11:46.427Z,1012.70
2018-05-19T06:12:51.936Z,1012.72
2018-05-19T06:13:57.448Z,1012.73
2018-05-19T06:15:02.972Z,1012.75
2018-05-19T06:16:08.482Z,1012.74
2018-05-19T06:17:13.986Z,1012.79
2018-05-19T06:18:19.504Z,1012.77
2018-05-19T06:19:25.005Z,1012.82
2018-05-19T06:20:30.518Z,1012.83
2018-05-19T06:21:36.048Z,1012.84
2018-05-19T06:22:41.545Z,1012.82
2018-05-19T06:23:47.053Z,1012.86
2018-05-19T06:24:52.664Z,1012.88
2018-05-19T06:25:58.087Z,1012.83
2018-05-19T06:27:03.595Z,1012.85
2018-05-19T06:28:09.115Z,1012.86
2018-05-19T06:29:14.618Z,1012.86
2018-05-19T06:30:20.125Z,1012.84
2018-05-19T06:31:25.648Z,1012.86
2018-05-19T06:32:31.151Z,1012.92
2018-05-19T06:33:36.666Z,1012.91
2018-05-19T06:34:42.213Z,1012.92
2018-05-19T06:35:47.685Z,1012.90
2018-05-19T06:36:53.200Z,1012.88
2018-05-19T06:37:58.712Z,1012.92
2018-05-19T06:39:04.224Z,1012.94
2018-05-19T06:40:09.737Z,1012.95
2018-05-19T06:41:15.301Z,1012.91
2018-05-19T06:42:20.766Z,1012.95
2018-05-19T06:43:26.291Z,1012.92
2018-05-19T06:44:31.800Z,1012.93
2018-05-19T06:45:37.303Z,1012.92
2018-05-19T06:46:42.827Z,1012.93
2018-05-19T06:47:48.331Z,1012.93
2018-05-19T06:48:53.840Z,1012.93
2018-05-19T06:49:59.356Z,1012.96
2018-05-19T06:51:04.867Z,1012.94
2018-05-19T06:52:10.386Z,1012.94
2018-05-19T06:53:15.892Z,1012.89
2018-05-19T06:54:21.402Z,1012.93
2018-05-19T06:55:26.913Z,1012.95
2018-05-19T06:56:32.432Z,1012.96
2018-05-19T06:57:37.943Z,1012.95
2018-05-19T06:58:43.458Z,1012.93
2018-05-19T06:59:48.961Z,1012.97
2018-05-19T07:00:54.477Z,1012.94
2018-05-19T07:01:59.987Z,1012.92
2018-05-19T07:03:05.505Z,1012.93
2018-05-19T07:04:11.022Z,1012.90
2018-05-19T07:05:16.526Z,1012.92
2018-05-19T07:06:22.040Z,1012.90
2018-05-19T07:07:27.557Z,1012.90
2018-05-19T07:08:33.124Z,1012.89
2018-05-19T07:09:38.632Z,1012.90
2018-05-19T07:10:44.094Z,1012.94
2018-05-19T07:11:49.640Z,1012.88
2018-05-19T07:12:55.120Z,1012.90
2018-05-19T07:14:00.627Z,1012.91
2018-05-19T07:15:06.200Z,1012.90
2018-05-19T07:16:11.655Z,1012.89
2018-05-19T07:17:17.172Z,1012.93
2018-05-19T07:18:22.687Z,1012.91
2018-05-19T07:19:28.190Z,1012.91
2018-05-19T07:20:33.718Z,1012.89
2018-05-19T07:21:39.236Z,1012.90
2018-05-19T07:22:44.733Z,1012.87
2018-05-19T07:23:50.248Z,1012.91
2018-05-19T07:24:55.763Z,1012.90
2018-05-19T07:26:01.273Z,1012.89
2018-05-19T07:27:06.787Z,1012.90
2018-05-19T07:28:12.301Z,1012.95
2018-05-19T07:29:17.819Z,1012.93
2018-05-19T07:30:23.325Z,1012.89
2018-05-19T07:31:28.839Z,1012.90
2018-05-19T07:32:34.353Z,1012.95
2018-05-19T07:33:39.870Z,1012.94
2018-05-19T07:34:45.377Z,1012.94
2018-05-19T07:35:50.902Z,1012.95
2018-05-19T07:36:56.418Z,1012.95
2018-05-19T07:38:01.920Z,1012.96
2018-05-19T07:39:07.428Z,1012.96
2018-05-19T07:40:12.946Z,1012.95
2018-05-19T07:41:18.456Z,1012.93
2018-05-19T07:42:23.979Z,1012.92
2018-05-19T07:43:29.480Z,1012.92
2018-05-19T07:44:34.998Z,1012.91
2018-05-19T07:45:40.516Z,1012.92
2018-05-19T07:46:46.030Z,1012.94
2018-05-19T07:47:51.537Z,1012.93
2018-05-19T07:48:57.062Z,1012.94
2018-05-19T07:50:02.564Z,1012.93
2018-05-19T07:51:08.085Z,1012.91
2018-05-19T07:52:13.596Z,1012.94
2018-05-19T07:53:19.115Z,1012.93
2018-05-19T07:54:24.617Z,1012.91
2018-05-19T07:55:30.130Z,1012.89
2018-05-19T07:56:35.648Z,1012.88
2018-05-19T07:57:41.154Z,1012.91
2018-05-19T07:58:46.671Z,1012.89
2018-05-19T07:59:52.203Z,1012.91
2018-05-19T08:00:57.698Z,1012.86
2018-05-19T08:02:03.221Z,1012.86
2018-05-19T08:03:08.727Z,1012.87
2018-05-19T08:04:14.289Z,1012.84
2018-05-19T08:05:19.760Z,1012.85
2018-05-19T08:06:25.269Z,1012.86
2018-05-19T08:07:30.813Z,1012.84
2018-05-19T08:08:36.304Z,1012.87
2018-05-19T08:09:41.807Z,1012.86
2018-05-19T08:10:47.328Z,1012.85
2018-05-19T08:11:52.839Z,1012.85
2018-05-19T08:12:58.349Z,1012.83
2018-05-19T08:14:03.875Z,1012.82
2018-05-19T08:15:09.379Z,1012.81
2018-05-19T08:16:14.896Z,1012.78
2018-05-19T08:17:20.462Z,1012.81
2018-05-19T08:18:25.944Z,1012.78
2018-05-19T08:19:31.450Z,1012.77
2018-05-19T08:20:36.940Z,1012.75
2018-05-19T08:21:42.460Z,1012.73
2018-05-19T08:22:47.971Z,1012.73
2018-05-19T08:23:53.482Z,1012.74
2018-05-19T08:24:59.015Z,1012.77
2018-05-19T08:26:04.511Z,1012.72
2018-05-19T08:27:10.027Z,1012.75
2018-05-19T08:28:15.543Z,1012.71
2018-05-19T08:29:21.053Z,1012.76
2018-05-19T08:30:26.571Z,1012.77
2018-05-19T08:31:32.078Z,1012.73
2018-05-19T08:32:37.598Z,1012.73
2018-05-19T08:33:43.110Z,1012.75
2018-05-19T08:34:48.629Z,1012.74
2018-05-19T08:35:54.134Z,1012.72
2018-05-19T08:36:59.651Z,1012.76
2018-05-19T08:38:05.161Z,1012.76
2018-05-19T08:39:10.672Z,1012.74
2018-05-19T08:40:16.188Z,1012.75
2018-05-19T08:41:21.701Z,1012.78
2018-05-19T08:42:27.256Z,1012.78
2018-05-19T08:43:32.731Z,1012.74
2018-05-19T08:44:38.390Z,1012.75
2018-05-19T08:45:43.757Z,1012.79
2018-05-19T08:46:49.274Z,1012.79
2018-05-19T08:47:54.795Z,1012.82
2018-05-19T08:49:00.303Z,1012.81
2018-05-19T08:50:05.820Z,1012.82
2018-05-19T08:51:11.329Z,1012.85
2018-05-19T08:52:16.852Z,1012.82
2018-05-19T08:53:22.356Z,1012.83
2018-05-19T08:54:27.877Z,1012.80
2018-05-19T08:55:33.380Z,1012.79
2018-05-19T08:56:38.900Z,1012.80
2018-05-19T08:57:44.414Z,1012.79
2018-05-19T08:58:49.923Z,1012.81
2018-05-19T08:59:55.440Z,1012.82
2018-05-19T09:01:00.950Z,1012.82
2018-05-19T09:02:06.466Z,1012.84
2018-05-19T09:03:11.986Z,1012.85
2018-05-19T09:04:17.496Z,1012.79
2018-05-19T09:05:23.022Z,1012.79
2018-05-19T09:06:28.529Z,1012.78
2018-05-19T09:07:34.032Z,1012.79
2018-05-19T09:08:39.546Z,1012.76
2018-05-19T09:09:45.069Z,1012.80
2018-05-19T09:10:50.593Z,1012.80
2018-05-19T09:11:56.099Z,1012.77
2018-05-19T09:13:01.616Z,1012.78
2018-05-19T09:14:07.121Z,1012.78
2018-05-19T09:15:12.641Z,1012.77
2018-05-19T09:16:18.155Z,1012.75
2018-05-19T09:17:23.677Z,1012.75
2018-05-19T09:18:29.179Z,1012.77
2018-05-19T09:19:34.691Z,1012.73
2018-05-19T09:20:40.261Z,1012.74
2018-05-19T09:21:45.728Z,1012.76
2018-05-19T09:22:51.239Z,1012.74
2018-05-19T09:23:56.751Z,1012.74
2018-05-19T09:25:02.263Z,1012.78
2018-05-19T09:26:07.783Z,1012.76
2018-05-19T09:27:13.299Z,1012.78
2018-05-19T09:28:18.805Z,1012.79
2018-05-19T09:29:24.326Z,1012.79
2018-05-19T09:30:29.837Z,1012.79
2018-05-19T09:31:35.350Z,1012.79
2018-05-19T09:32:40.864Z,1012.79
2018-05-19T09:33:46.384Z,1012.76
2018-05-19T09:34:51.894Z,1012.73
2018-05-19T09:35:57.424Z,1012.75
2018-05-19T09:37:02.927Z,1012.73
2018-05-19T09:38:08.441Z,1012.72
2018-05-19T09:39:13.953Z,1012.71
2018-05-19T09:40:19.485Z,1012.67
2018-05-19T09:41:24.993Z,1012.71
2018-05-19T09:42:30.500Z,1012.74
2018-05-19T09:43:36.018Z,1012.71
2018-05-19T09:44:41.525Z,1012.75
2018-05-19T09:45:47.060Z,1012.71
2018-05-19T09:46:52.562Z,1012.67
2018-05-19T09:47:58.077Z,1012.70
2018-05-19T09:49:03.590Z,1012.68
2018-05-19T09:50:09.100Z,1012.69
2018-05-19T09:51:14.628Z,1012.74
2018-05-19T09:52:20.136Z,1012.79
2018-05-19T09:53:25.648Z,1012.75
2018-05-19T09:54:31.160Z,1012.75
2018-05-19T09:55:36.675Z,1012.77
2018-05-19T09:56:42.199Z,1012.76
2018-05-19T09:57:47.706Z,1012.78
2018-05-19T09:58:53.217Z,1012.79
2018-05-19T09:59:58.733Z,1012.81
2018-05-19T10:01:04.246Z,1012.76
2018-05-19T10:02:09.765Z,1012.75
2018-05-19T10:03:15.288Z,1012.77
2018-05-19T10:04:20.791Z,1012.74
2018-05-19T10:05:26.310Z,1012.74
2018-05-19T10:06:31.825Z,1012.77
2018-05-19T10:07:37.335Z,1012.80
2018-05-19T10:08:42.858Z,1012.81
2018-05-19T10:09:48.371Z,1012.77
2018-05-19T10:10:53.882Z,1012.74
2018-05-19T10:11:59.408Z,1012.76
2018-05-19T10:13:04.916Z,1012.79
2018-05-19T10:14:10.434Z,1012.79
2018-05-19T10:15:15.952Z,1012.77
2018-05-19T10:16:21.469Z,1012.76
2018-05-19T10:17:26.994Z,1012.75
2018-05-19T10:18:32.594Z,1012.79
2018-05-19T10:19:38.007Z,1012.76
2018-05-19T10:20:43.524Z,1012.79
2018-05-19T10:21:49.042Z,1012.71
2018-05-19T10:22:54.708Z,1012.75
2018-05-19T10:24:00.072Z,1012.76
2018-05-19T10:25:05.587Z,1012.76
2018-05-19T10:26:11.107Z,1012.79
2018-05-19T10:27:16.615Z,1012.79
2018-05-19T10:28:22.154Z,1012.75
2018-05-19T10:29:27.647Z,1012.79
2018-05-19T10:30:33.164Z,1012.76
2018-05-19T10:31:38.698Z,1012.81
2018-05-19T10:32:44.196Z,1012.79
2018-05-19T10:33:49.713Z,1012.79
2018-05-19T10:34:55.223Z,1012.78
2018-05-19T10:36:00.748Z,1012.80
2018-05-19T10:37:06.267Z,1012.84
2018-05-19T10:38:11.784Z,1012.81
2018-05-19T10:39:17.289Z,1012.80
2018-05-19T10:40:22.812Z,1012.80
2018-05-19T10:41:28.322Z,1012.80
2018-05-19T10:42:33.847Z,1012.78
2018-05-19T10:43:39.358Z,1012.76
2018-05-19T10:44:44.871Z,1012.72
2018-05-19T10:45:50.397Z,1012.72
2018-05-19T10:46:55.906Z,1012.77
2018-05-19T10:48:01.434Z,1012.75
2018-05-19T10:49:06.944Z,1012.76
2018-05-19T10:50:12.458Z,1012.75
2018-05-19T10:51:17.966Z,1012.77
2018-05-19T10:52:23.485Z,1012.78
2018-05-19T10:53:28.996Z,1012.73
2018-05-19T10:54:34.517Z,1012.78
2018-05-19T10:55:40.026Z,1012.80
2018-05-19T10:56:45.555Z,1012.76
2018-05-19T10:57:51.066Z,1012.79
2018-05-19T10:58:56.575Z,1012.78
2018-05-19T11:00:02.092Z,1012.73
2018-05-19T11:01:07.609Z,1012.74
2018-05-19T11:02:13.128Z,1012.71
2018-05-19T11:03:18.645Z,1012.72
2018-05-19T11:04:24.157Z,1012.75
2018-05-19T11:05:29.671Z,1012.77
2018-05-19T11:06:35.193Z,1012.75
2018-05-19T11:07:40.713Z,1012.76
2018-05-19T11:08:46.234Z,1012.77
2018-05-19T11:09:51.797Z,1012.74
2018-05-19T11:10:57.253Z,1012.73
2018-05-19T11:12:02.778Z,1012.74
2018-05-19T11:13:08.288Z,1012.75
2018-05-19T11:14:13.808Z,1012.72
2018-05-19T11:15:19.320Z,1012.76
2018-05-19T11:16:24.843Z,1012.75
2018-05-19T11:17:30.355Z,1012.73
2018-05-19T11:18:35.973Z,1012.71
2018-05-19T11:19:41.397Z,1012.76
2018-05-19T11:20:46.994Z,1012.77
2018-05-19T11:21:52.421Z,1012.80
2018-05-19T11:22:57.940Z,1012.79
2018-05-19T11:24:03.484Z,1012.79
2018-05-19T11:25:08.974Z,1012.78
2018-05-19T11:26:14.492Z,1012.80
2018-05-19T11:27:20.006Z,1012.78
2018-05-19T11:28:25.526Z,1012.74
2018-05-19T11:29:31.056Z,1012.69
2018-05-19T11:30:36.554Z,1012.68
2018-05-19T11:31:42.082Z,1012.71
2018-05-19T11:32:47.585Z,1012.70
2018-05-19T11:33:53.105Z,1012.69
2018-05-19T11:34:58.625Z,1012.68
2018-05-19T11:36:04.153Z,1012.63
2018-05-19T11:37:09.655Z,1012.64
2018-05-19T11:38:15.170Z,1012.63
2018-05-19T11:39:20.694Z,1012.61
2018-05-19T11:40:26.224Z,1012.61
2018-05-19T11:41:31.766Z,1012.63
2018-05-19T11:42:37.239Z,1012.64
2018-05-19T11:43:42.757Z,1012.63
2018-05-19T11:44:48.281Z,1012.65
2018-05-19T11:45:53.799Z,1012.62
2018-05-19T11:46:59.317Z,1012.61
2018-05-19T11:48:04.835Z,1012.60
2018-05-19T11:49:10.351Z,1012.54
2018-05-19T11:50:15.864Z,1012.51
2018-05-19T11:51:21.397Z,1012.53
2018-05-19T11:52:26.892Z,1012.52
2018-05-19T11:53:32.414Z,1012.53
2018-05-19T11:54:37.934Z,1012.53
2018-05-19T11:55:43.457Z,1012.53
2018-05-19T11:56:48.967Z,1012.52
2018-05-19T11:57:54.494Z,1012.53
2018-05-19T11:59:00.006Z,1012.49
2018-05-19T12:00:05.526Z,1012.52
2018-05-19T12:01:11.042Z,1012.49
2018-05-19T12:02:16.553Z,1012.49
2018-05-19T12:03:22.078Z,1012.51
2018-05-19T12:04:27.599Z,1012.44
2018-05-19T12:05:33.107Z,1012.46
2018-05-19T12:06:38.633Z,1012.46
2018-05-19T12:07:44.155Z,1012.44
2018-05-19T12:08:49.661Z,1012.46
2018-05-19T12:09:55.195Z,1012.47
2018-05-19T12:11:00.698Z,1012.47
2018-05-19T12:12:06.404Z,1012.45
2018-05-19T12:13:11.754Z,1012.42
2018-05-19T12:14:17.254Z,1012.43
2018-05-19T12:15:22.772Z,1012.45
2018-05-19T12:16:28.292Z,1012.42
2018-05-19T12:17:33.824Z,1012.44
2018-05-19T12:18:39.333Z,1012.40
2018-05-19T12:19:44.848Z,1012.39
2018-05-19T12:20:50.368Z,1012.38
2018-05-19T12:21:55.896Z,1012.43
2018-05-19T12:23:01.512Z,1012.34
2018-05-19T12:24:06.946Z,1012.34
2018-05-19T12:25:12.458Z,1012.35
2018-05-19T12:26:17.978Z,1012.39
2018-05-19T12:27:23.471Z,1012.34
2018-05-19T12:28:28.995Z,1012.34
2018-05-19T12:29:34.522Z,1012.33
2018-05-19T12:30:40.034Z,1012.33
2018-05-19T12:31:45.554Z,1012.31
2018-05-19T12:32:51.064Z,1012.29
2018-05-19T12:33:56.603Z,1012.29
2018-05-19T12:35:02.105Z,1012.32
2018-05-19T12:36:07.664Z,1012.30
2018-05-19T12:37:13.196Z,1012.31
2018-05-19T12:38:18.658Z,1012.32
2018-05-19T12:39:24.181Z,1012.27
2018-05-19T12:40:29.707Z,1012.26
2018-05-19T12:41:35.319Z,1012.25
2018-05-19T12:42:40.736Z,1012.23
2018-05-19T12:43:46.251Z,1012.23
2018-05-19T12:44:51.787Z,1012.26
2018-05-19T12:45:57.285Z,1012.25
2018-05-19T12:47:02.818Z,1012.26
2018-05-19T12:48:08.333Z,1012.24
2018-05-19T12:49:13.847Z,1012.24
2018-05-19T12:50:19.362Z,1012.21
2018-05-19T12:51:24.886Z,1012.25
2018-05-19T12:52:30.401Z,1012.20
2018-05-19T12:53:35.925Z,1012.20
2018-05-19T12:54:41.436Z,1012.18
2018-05-19T12:55:46.952Z,1012.22
2018-05-19T12:56:52.471Z,1012.16
2018-05-19T12:57:58.007Z,1012.16
2018-05-19T12:59:03.562Z,1012.16
2018-05-19T13:00:09.026Z,1012.19
2018-05-19T13:01:14.561Z,1012.17
2018-05-19T13:02:20.062Z,1012.15
2018-05-19T13:03:25.652Z,1012.20
2018-05-19T13:04:31.098Z,1012.19
2018-05-19T13:05:36.620Z,1012.15
2018-05-19T13:06:42.168Z,1012.17
2018-05-19T13:07:47.714Z,1012.16
2018-05-19T13:08:53.192Z,1012.16
2018-05-19T13:09:58.692Z,1012.19
2018-05-19T13:11:04.216Z,1012.19
2018-05-19T13:12:09.747Z,1012.17